EST,Max TemperatureF,Mean TemperatureF,Min TemperatureF,Max Dew PointF,MeanDew PointF,Min DewpointF,Max Humidity, Mean Humidity, Min Humidity, Max Sea Level PressureIn, Mean Sea Level PressureIn, Min Sea Level PressureIn, Max VisibilityMiles, Mean VisibilityMiles, Min VisibilityMiles, Max Wind SpeedMPH, Mean Wind SpeedMPH, Max Gust SpeedMPH,PrecipitationIn, CloudCover, Events, WindDirDegrees
2014-1-1,59,54,50,55,50,45,100,89,76,30.35,30.27,30.13,10,9,4,6,3,,0.00,7,,27
2014-1-2,62,55,46,61,55,36,100,95,66,30.12,29.92,29.76,10,8,3,22,5,32,0.00,8,,324
2014-1-3,46,39,32,34,23,16,81,58,36,30.40,30.26,29.97,10,10,10,16,10,29,0.00,0,,340
2014-1-4,50,42,33,45,37,27,87,78,70,30.37,30.30,30.17,10,10,10,15,8,20,0.00,7,,20
2014-1-5,68,57,46,59,50,43,100,85,64,30.16,30.05,29.92,10,9,0,8,2,,0.00,6,,35
2014-1-6,64,48,32,63,39,9,100,70,35,30.38,30.06,29.85,10,10,3,21,11,31,0.00,3,,265
2014-1-7,33,27,21,14,8,5,58,42,30,30.57,30.49,30.38,10,10,10,14,9,21,0.00,0,,311
2014-1-8,46,37,28,39,28,12,81,66,51,30.56,30.49,30.44,10,10,10,15,6,21,0.00,4,,13
2014-1-9,57,50,44,55,46,36,100,84,71,30.45,30.38,30.33,10,10,7,13,7,17,0.00,8,,34
2014-1-10,69,61,53,68,63,52,100,97,94,30.31,30.18,30.09,10,6,1,17,5,18,0.00,7,,120
2014-1-11,77,68,59,70,64,54,100,93,65,30.09,29.93,29.80,10,7,0,18,7,36,0.00,7,Thunderstorm,207
2014-1-12,62,52,41,55,42,32,100,71,32,30.24,30.14,29.93,10,9,0,10,5,,0.00,0,,280
2014-1-13,66,52,37,57,48,37,100,84,59,30.22,30.12,29.98,10,8,0,12,2,20,0.00,1,,131
2014-1-14,68,56,44,61,55,45,100,90,56,30.03,29.94,29.86,10,8,1,14,4,18,0.00,5,Thunderstorm,238
2014-1-15,62,50,37,45,40,36,100,73,37,30.06,29.98,29.91,10,7,0,10,2,16,0.00,1,,268
2014-1-16,50,42,33,32,25,12,93,58,27,30.16,30.09,29.99,10,10,10,15,7,23,0.00,1,,285
2014-1-17,64,48,32,46,38,30,100,68,40,30.16,30.09,30.00,10,10,10,17,5,26,0.00,0,,233
2014-1-18,51,42,33,30,22,18,87,47,26,30.26,30.17,30.06,10,10,10,15,8,23,0.00,0,,276
2014-1-19,64,50,37,45,36,28,87,65,37,30.15,30.11,30.04,10,10,10,17,8,25,0.00,1,,245
2014-1-20,68,50,33,41,35,30,100,64,24,30.14,30.06,29.98,10,10,1,13,3,17,0.00,0,,246
2014-1-21,68,55,42,55,43,27,100,71,38,29.98,29.84,29.67,10,10,7,23,10,31,0.00,2,,256
2014-1-22,46,38,30,27,21,14,75,55,27,30.21,30.09,29.92,10,10,10,16,8,22,0.00,0,,284
2014-1-23,46,38,30,30,23,16,87,60,32,30.42,30.32,30.20,10,10,10,12,2,,0.00,0,,288
2014-1-24,42,37,32,30,18,9,87,50,26,30.57,30.47,30.35,10,10,10,13,5,18,0.00,2,,10
2014-1-25,59,46,33,45,37,28,93,70,50,30.34,30.11,29.95,10,10,10,23,6,31,0.00,5,,242
2014-1-26,55,46,37,46,38,28,100,75,36,30.10,30.04,29.99,10,8,0,8,3,,0.00,1,,213
2014-1-27,71,56,42,54,48,41,100,76,41,30.02,29.97,29.90,10,10,10,16,3,21,0.00,2,,240
2014-1-28,59,47,35,54,44,34,100,91,77,30.13,30.07,29.98,10,8,2,15,5,21,0.00,8,,23
2014-1-29,35,34,32,34,32,30,100,97,93,30.34,30.25,30.11,10,9,3,8,4,,0.00,8,,352
2014-1-30,39,36,32,32,29,28,93,79,65,30.34,30.27,30.19,10,10,7,8,2,,0.00,8,,4
2014-1-31,55,44,33,48,40,30,100,85,72,30.26,30.20,30.16,10,10,5,8,3,,0.00,7,,36